Time;durP1;ratioP1;P1;durP2;ratioP2;P2;SDS_P1;SDS_P2;PMS_P1;PMS_P2;Temp;Humidity;BMP_temperature;BMP_pressure;BME280_temperature;BME280_humidity;BME280_pressure;Samples;Min_cycle;Max_cycle;Signal;HPM_P1;HPM_P2
2023/03/09 00:01:24;;;;;;;;;;;;;;;-144.99;89.88;52517.41;5029971;28;19929;-65
2023/03/09 00:03:51;;;;;;;;;;;;;;;-144.99;89.90;52554.09;5030660;28;20424;-66
2023/03/09 00:06:18;;;;;;;;;;;;;;;-144.99;89.81;52537.78;5027593;28;19948;-66
2023/03/09 00:08:44;;;;;;;;;;;;;;;-144.99;90.52;52529.63;5029455;28;19979;-66
2023/03/09 00:11:11;;;;;;;;;;;;;;;-144.99;89.92;52554.09;5030791;28;20417;-66
2023/03/09 00:13:39;;;;;;;;;;;;;;;-144.99;89.90;52572.44;5029023;28;19926;-67
2023/03/09 00:16:10;;;;;;;;;;;;;;;-144.99;90.11;52539.81;5028670;28;19929;-68
2023/03/09 00:18:36;;;;;;;;;;;;;;;-144.99;90.72;52558.16;5030390;28;19925;-66
2023/03/09 00:21:03;;;;;;;;;;;;;;;-144.99;91.39;52550.00;5030481;28;19964;-65
2023/03/09 00:23:30;;;;;;;;;;;;;;;-144.99;91.93;52572.44;5029380;28;19929;-66
2023/03/09 00:25:56;;;;;;;;;;;;;;;-144.99;92.14;52588.75;5025036;28;19984;-65
2023/03/09 00:28:23;;;;;;;;;;;;;;;-144.99;92.07;52566.31;5053996;28;19973;-65
2023/03/09 00:30:51;;;;;;;;;;;;;;;-144.99;92.34;52547.97;5030440;28;19956;-67
2023/03/09 00:33:17;;;;;;;;;;;;;;;-144.99;92.21;52576.50;5029635;28;19929;-66
2023/03/09 00:35:44;;;;;;;;;;;;;;;-144.99;92.00;52537.78;5026259;28;19929;-67
2023/03/09 00:38:10;;;;;;;;;;;;;;;-144.99;91.89;52545.94;5029754;28;19947;-65
2023/03/09 00:40:37;;;;;;;;;;;;;;;-144.99;91.81;52574.47;5030025;28;19960;-65
2023/03/09 00:43:04;;;;;;;;;;;;;;;-144.99;91.72;52564.28;5029564;28;20418;-65
2023/03/09 00:45:30;;;;;;;;;;;;;;;-144.99;91.32;52562.25;5030185;28;20000;-70
2023/03/09 00:47:58;;;;;;;;;;;;;;;-144.99;90.75;52521.47;5029302;28;19929;-68
2023/03/09 00:50:24;;;;;;;;;;;;;;;-144.99;90.01;52578.53;5029862;28;19995;-67
2023/03/09 00:52:51;;;;;;;;;;;;;;;-144.99;90.01;52537.78;5029885;28;19969;-68
2023/03/09 00:55:18;;;;;;;;;;;;;;;-144.99;90.97;52556.13;5029663;28;19925;-68
2023/03/09 00:57:44;;;;;;;;;;;;;;;-144.99;90.83;52566.31;5026195;28;20042;-67
2023/03/09 01:00:11;;;;;;;;;;;;;;;-144.99;91.39;52578.53;5029282;28;19965;-67
2023/03/09 01:02:38;;;;;;;;;;;;;;;-144.99;91.20;52550.00;5029730;28;20382;-67
2023/03/09 01:05:06;;;;;;;;;;;;;;;-144.99;91.02;52570.38;5027353;28;20220;-68
2023/03/09 01:07:34;;;;;;;;;;;;;;;-144.99;90.71;52541.84;5024147;28;20353;-69
2023/03/09 01:10:00;;;;;;;;;;;;;;;-144.99;91.34;52615.25;5029944;28;19933;-69
2023/03/09 01:12:27;;;;;;;;;;;;;;;-144.99;90.66;52568.34;5028974;28;19995;-69
2023/03/09 01:14:54;;;;;;;;;;;;;;;-144.99;90.69;52580.59;5027929;28;20398;-68
2023/03/09 01:17:20;;;;;;;;;;;;;;;-144.99;90.88;52574.47;5020951;28;20015;-69
2023/03/09 01:19:47;;;;;;;;;;;;;;;-144.99;91.16;52566.31;5030387;28;19966;-70
2023/03/09 01:22:15;;;;;;;;;;;;;;;-144.99;90.96;52566.31;5030601;28;19929;-70
2023/03/09 01:24:42;;;;;;;;;;;;;;;-144.99;91.01;52578.53;5029018;28;20034;-70
2023/03/09 01:27:09;;;;;;;;;;;;;;;-144.99;90.73;52550.00;5028448;28;20255;-70
2023/03/09 01:29:35;;;;;;;;;;;;;;;-144.99;91.67;52517.41;5029155;28;19967;-70
2023/03/09 01:32:02;;;;;;;;;;;;;;;-144.99;91.87;52525.56;5030974;28;19925;-69
2023/03/09 01:34:29;;;;;;;;;;;;;;;-144.99;92.10;52578.53;5030689;28;20405;-69
2023/03/09 01:36:55;;;;;;;;;;;;;;;-144.99;92.11;52560.19;5031727;28;19929;-69
2023/03/09 01:39:23;;;;;;;;;;;;;;;-144.99;93.00;52554.09;5038221;28;19929;-70
2023/03/09 01:41:50;;;;;;;;;;;;;;;-144.99;92.89;52509.25;5053319;28;19944;-70
2023/03/09 01:44:16;;;;;;;;;;;;;;;-144.99;91.93;52554.09;5044310;28;20208;-70
2023/03/09 01:46:47;;;;;;;;;;;;;;;-144.99;92.75;52541.84;5034512;28;20408;-70
2023/03/09 01:49:17;;;;;;;;;;;;;;;-144.99;93.27;52572.44;5031596;28;20024;-76
2023/03/09 01:51:48;;;;;;;;;;;;;;;-144.99;93.19;52566.31;5030420;28;19968;-76
2023/03/09 01:54:17;;;;;;;;;;;;;;;-144.99;93.48;52582.63;5027995;28;20027;-75
2023/03/09 01:56:46;;;;;;;;;;;;;;;-144.99;93.61;52590.78;5031849;28;20146;-74
2023/03/09 01:59:12;;;;;;;;;;;;;;;-144.99;93.47;52598.94;5025685;28;19925;-73
2023/03/09 02:01:40;;;;;;;;;;;;;;;-144.99;93.17;52566.31;5029160;28;19982;-74
2023/03/09 02:04:09;;;;;;;;;;;;;;;-144.99;93.01;52582.63;5028889;28;20661;-74
2023/03/09 02:06:36;;;;;;;;;;;;;;;-144.99;93.26;52558.16;5025226;28;20427;-73
2023/03/09 02:09:08;;;;;;;;;;;;;;;-144.99;93.34;52562.25;5030070;28;19929;-72
2023/03/09 02:11:35;;;;;;;;;;;;;;;-144.99;93.22;52541.84;5042880;28;20070;-71
2023/03/09 02:14:03;;;;;;;;;;;;;;;-144.99;93.76;52554.09;5032919;28;19933;-69
2023/03/09 02:16:29;;;;;;;;;;;;;;;-144.99;94.35;52543.91;5029896;28;19925;-68
2023/03/09 02:18:56;;;;;;;;;;;;;;;-144.99;94.72;52586.69;5029459;28;19925;-68
2023/03/09 02:21:28;;;;;;;;;;;;;;;-144.99;94.89;52541.84;5031310;28;19925;-68
2023/03/09 02:24:01;;;;;;;;;;;;;;;-144.99;94.55;52558.16;5047157;28;19921;-70
2023/03/09 02:26:33;;;;;;;;;;;;;;;-144.99;94.64;52566.31;5041497;28;19925;-73
2023/03/09 02:29:01;;;;;;;;;;;;;;;-144.99;94.81;52576.50;5028787;28;19985;-72
2023/03/09 02:31:27;;;;;;;;;;;;;;;-144.99;94.38;52554.09;5030455;28;19972;-72
2023/03/09 02:33:54;;;;;;;;;;;;;;;-144.99;94.47;52521.47;5028314;28;19929;-71
2023/03/09 02:36:21;;;;;;;;;;;;;;;-144.99;94.40;52594.84;5023222;28;19928;-71
2023/03/09 02:38:47;;;;;;;;;;;;;;;-144.99;94.28;52566.31;5027868;28;19952;-71
2023/03/09 02:41:14;;;;;;;;;;;;;;;-144.99;95.08;52562.25;5030958;28;20378;-69
2023/03/09 02:43:43;;;;;;;;;;;;;;;-144.99;95.09;52578.53;5027829;28;20338;-71
2023/03/09 02:46:11;;;;;;;;;;;;;;;-144.99;95.58;52558.16;5032029;28;19960;-70
2023/03/09 02:48:37;;;;;;;;;;;;;;;-144.99;94.44;52582.63;5031062;28;19951;-69
2023/03/09 02:51:06;;;;;;;;;;;;;;;-144.99;95.46;52562.25;5027784;28;20031;-69
2023/03/09 02:53:32;;;;;;;;;;;;;;;-144.99;95.77;52566.31;5027377;28;20019;-70
2023/03/09 02:55:59;;;;;;;;;;;;;;;-144.99;95.35;52574.47;5027772;28;19929;-71
2023/03/09 02:58:25;;;;;;;;;;;;;;;-144.99;95.02;52560.19;5027987;28;20394;-71
2023/03/09 03:00:52;;;;;;;;;;;;;;;-144.99;95.11;52598.94;5028566;28;19933;-69
2023/03/09 03:03:20;;;;;;;;;;;;;;;-144.99;93.92;52570.38;5029287;28;20351;-69
2023/03/09 03:05:46;;;;;;;;;;;;;;;-144.99;94.69;52537.78;5046473;28;19997;-71
2023/03/09 03:08:13;;;;;;;;;;;;;;;-144.99;94.81;52568.34;5044086;28;19940;-70
2023/03/09 03:10:40;;;;;;;;;;;;;;;-144.99;94.79;52545.94;5028069;28;19932;-70
2023/03/09 03:13:06;;;;;;;;;;;;;;;-144.99;95.29;52558.16;5027631;28;20325;-70
2023/03/09 03:15:33;;;;;;;;;;;;;;;-144.99;95.73;52590.78;5026130;28;19926;-70
2023/03/09 03:17:59;;;;;;;;;;;;;;;-144.99;95.45;52570.38;5027933;28;19971;-70
2023/03/09 03:20:27;;;;;;;;;;;;;;;-144.99;94.62;52533.69;5028191;28;19960;-70
2023/03/09 03:22:54;;;;;;;;;;;;;;;-144.99;94.29;52582.63;5027992;28;19925;-70
2023/03/09 03:25:20;;;;;;;;;;;;;;;-144.99;94.18;52558.16;5028793;28;19929;-70
2023/03/09 03:27:47;;;;;;;;;;;;;;;-144.99;94.21;52550.00;5027741;28;19932;-73
2023/03/09 03:30:14;;;;;;;;;;;;;;;-144.99;94.17;52550.00;5028425;28;20016;-72
2023/03/09 03:32:41;;;;;;;;;;;;;;;-144.99;94.50;52570.38;5028790;28;19984;-72
2023/03/09 03:35:07;;;;;;;;;;;;;;;-144.99;94.45;52529.63;5027039;28;19971;-72
2023/03/09 03:37:35;;;;;;;;;;;;;;;-144.99;94.43;52550.00;5029614;28;19925;-72
2023/03/09 03:40:07;;;;;;;;;;;;;;;-144.99;94.92;52533.69;5028187;28;19929;-71
2023/03/09 03:42:34;;;;;;;;;;;;;;;-144.99;95.55;52570.38;5027089;28;19940;-72
2023/03/09 03:45:01;;;;;;;;;;;;;;;-144.99;95.77;52543.91;5028354;28;20024;-73
2023/03/09 03:47:27;;;;;;;;;;;;;;;-144.99;95.83;52566.31;5047631;28;19913;-73
2023/03/09 03:49:54;;;;;;;;;;;;;;;-144.99;95.74;52509.25;5039692;28;19979;-73
2023/03/09 03:52:20;;;;;;;;;;;;;;;-144.99;95.82;52574.47;5029746;28;20348;-72
2023/03/09 03:54:48;;;;;;;;;;;;;;;-144.99;95.23;52560.19;5030628;28;19995;-73
2023/03/09 03:57:15;;;;;;;;;;;;;;;-144.99;95.09;52566.31;5029536;28;19929;-72
2023/03/09 03:59:41;;;;;;;;;;;;;;;-144.99;94.90;52537.78;5030916;28;19926;-73
2023/03/09 04:02:08;;;;;;;;;;;;;;;-144.99;95.04;52525.56;5030486;28;19925;-67
2023/03/09 04:04:34;;;;;;;;;;;;;;;-144.99;95.17;52586.69;5027933;28;19929;-70
2023/03/09 04:07:01;;;;;;;;;;;;;;;-144.99;95.14;52541.84;5021385;28;19925;-71
2023/03/09 04:09:28;;;;;;;;;;;;;;;-144.99;94.78;52562.25;5030960;28;20022;-70
2023/03/09 04:11:55;;;;;;;;;;;;;;;-144.99;94.74;52537.78;5030189;28;19929;-72
2023/03/09 04:14:22;;;;;;;;;;;;;;;-144.99;95.06;52586.69;5031419;28;20165;-72
2023/03/09 04:16:48;;;;;;;;;;;;;;;-144.99;94.31;52533.69;5031312;28;20221;-70
2023/03/09 04:19:15;;;;;;;;;;;;;;;-144.99;94.94;52537.78;5035934;28;19929;-69
2023/03/09 04:21:41;;;;;;;;;;;;;;;-144.99;95.08;52596.88;5032546;28;19933;-72
2023/03/09 04:24:08;;;;;;;;;;;;;;;-144.99;94.98;52537.78;5030138;28;19995;-70
2023/03/09 04:26:35;;;;;;;;;;;;;;;-144.99;94.33;52570.38;5031473;28;19933;-71
2023/03/09 04:29:03;;;;;;;;;;;;;;;-144.99;95.49;52558.16;5040412;28;19925;-73
2023/03/09 04:31:29;;;;;;;;;;;;;;;-144.99;96.14;52554.09;5035018;28;19932;-72
2023/03/09 04:33:56;;;;;;;;;;;;;;;-144.99;94.28;52525.56;5030983;28;19941;-71
2023/03/09 04:36:23;;;;;;;;;;;;;;;-144.99;96.42;52541.84;5030373;28;19925;-74
2023/03/09 04:38:49;;;;;;;;;;;;;;;-144.99;97.53;52537.78;5031414;28;19929;-71
2023/03/09 04:41:16;;;;;;;;;;;;;;;-144.99;96.89;52550.00;5031048;28;20364;-72
2023/03/09 04:43:42;;;;;;;;;;;;;;;-144.99;96.21;52488.84;5029450;28;19960;-73
2023/03/09 04:46:10;;;;;;;;;;;;;;;-144.99;95.74;52533.69;5032089;28;19929;-72
2023/03/09 04:48:37;;;;;;;;;;;;;;;-144.99;96.75;52525.56;5032533;28;19925;-73
2023/03/09 04:51:03;;;;;;;;;;;;;;;-144.99;97.54;52541.84;5031380;28;19936;-73
2023/03/09 04:53:30;;;;;;;;;;;;;;;-144.99;98.32;52537.78;5029679;28;20032;-74
2023/03/09 04:55:56;;;;;;;;;;;;;;;-144.99;97.51;52543.91;5028013;28;19925;-73
2023/03/09 04:58:23;;;;;;;;;;;;;;;-144.99;97.11;52576.50;5023078;28;20229;-73
2023/03/09 05:00:49;;;;;;;;;;;;;;;-144.99;97.14;52537.78;5032366;28;19970;-72
2023/03/09 05:03:17;;;;;;;;;;;;;;;-144.99;97.17;52537.78;5050396;28;19937;-70
2023/03/09 05:05:44;;;;;;;;;;;;;;;-144.99;95.67;52568.34;5028422;28;20452;-70
2023/03/09 05:08:10;;;;;;;;;;;;;;;-144.99;96.41;52545.94;5035235;28;19929;-69
2023/03/09 05:10:37;;;;;;;;;;;;;;;-144.99;96.24;52570.38;5034321;28;19987;-69
2023/03/09 05:13:03;;;;;;;;;;;;;;;-144.99;96.31;52525.56;5035477;28;19936;-70
2023/03/09 05:15:30;;;;;;;;;;;;;;;-144.99;96.28;52580.59;5034555;28;19925;-69
2023/03/09 05:17:56;;;;;;;;;;;;;;;-144.99;96.26;52472.56;5034439;28;20376;-69
2023/03/09 05:20:24;;;;;;;;;;;;;;;-144.99;95.96;52558.16;5032043;28;19994;-69
2023/03/09 05:22:54;;;;;;;;;;;;;;;-144.99;96.17;52562.25;5034178;28;20454;-70
2023/03/09 05:25:21;;;;;;;;;;;;;;;-144.99;96.07;52541.84;5038959;28;20116;-69
2023/03/09 05:27:47;;;;;;;;;;;;;;;-144.99;96.04;52529.63;5039478;28;20429;-70
2023/03/09 05:30:14;;;;;;;;;;;;;;;-144.99;95.33;52556.13;5038444;28;19929;-72
2023/03/09 05:32:40;;;;;;;;;;;;;;;-144.99;94.15;52550.00;5036040;28;19952;-69
2023/03/09 05:35:07;;;;;;;;;;;;;;;-144.99;93.65;52562.25;5031838;28;19983;-69
2023/03/09 05:37:35;;;;;;;;;;;;;;;-144.99;93.68;52529.63;5031232;28;19949;-72
2023/03/09 05:40:04;;;;;;;;;;;;;;;-144.99;95.46;52521.47;5030667;28;19926;-70
2023/03/09 05:42:31;;;;;;;;;;;;;;;-144.99;95.86;52547.97;5029219;28;19968;-69
2023/03/09 05:44:57;;;;;;;;;;;;;;;-144.99;96.06;52568.34;5033698;28;20369;-70
2023/03/09 05:47:24;;;;;;;;;;;;;;;-144.99;95.63;52523.50;5031228;28;20020;-70
2023/03/09 05:49:50;;;;;;;;;;;;;;;-144.99;94.65;52533.69;5029617;28;20389;-70
2023/03/09 05:52:17;;;;;;;;;;;;;;;-144.99;94.45;52525.56;5029673;28;19964;-69
2023/03/09 05:54:45;;;;;;;;;;;;;;;-144.99;94.38;52519.44;5027528;28;19933;-70
2023/03/09 05:57:12;;;;;;;;;;;;;;;-144.99;95.09;52550.00;5029126;28;19926;-69
2023/03/09 05:59:38;;;;;;;;;;;;;;;-144.99;95.18;52533.69;5028543;28;19933;-71
2023/03/09 06:02:05;;;;;;;;;;;;;;;-144.99;95.83;52570.38;5029245;28;19987;-70
2023/03/09 06:04:31;;;;;;;;;;;;;;;-144.99;96.29;52560.19;5026604;28;20457;-70
2023/03/09 06:06:58;;;;;;;;;;;;;;;-144.99;96.56;52574.47;5028718;28;19929;-69
2023/03/09 06:09:25;;;;;;;;;;;;;;;-144.99;96.69;52511.28;5027719;28;19933;-70
2023/03/09 06:11:53;;;;;;;;;;;;;;;-144.99;96.54;52497.00;5029254;28;19932;-70
2023/03/09 06:14:19;;;;;;;;;;;;;;;-144.99;95.49;52545.94;5028100;28;19937;-70
2023/03/09 06:16:46;;;;;;;;;;;;;;;-144.99;95.53;52550.00;5024573;28;19933;-70
2023/03/09 06:19:12;;;;;;;;;;;;;;;-144.99;95.91;52566.31;5025962;28;19987;-68
2023/03/09 06:21:39;;;;;;;;;;;;;;;-144.99;97.00;52550.00;5029879;28;19925;-70
2023/03/09 06:24:06;;;;;;;;;;;;;;;-144.99;96.20;52517.41;5028817;28;20327;-72
2023/03/09 06:26:33;;;;;;;;;;;;;;;-144.99;96.11;52537.78;5027358;28;20306;-71
2023/03/09 06:29:01;;;;;;;;;;;;;;;-144.99;96.14;52545.94;5028305;28;19932;-71
2023/03/09 06:31:27;;;;;;;;;;;;;;;-144.99;95.92;52558.16;5028118;28;19968;-71
2023/03/09 06:33:54;;;;;;;;;;;;;;;-144.99;95.93;52541.84;5027467;28;19933;-72
2023/03/09 06:36:20;;;;;;;;;;;;;;;-144.99;94.58;52541.84;5028542;28;20501;-74
2023/03/09 06:38:47;;;;;;;;;;;;;;;-144.99;93.44;52533.69;5025050;28;19933;-73
2023/03/09 06:41:14;;;;;;;;;;;;;;;-144.99;93.32;52533.69;5027618;28;19925;-72
2023/03/09 06:43:42;;;;;;;;;;;;;;;-144.99;93.21;52570.38;5027595;28;19979;-72
2023/03/09 06:46:10;;;;;;;;;;;;;;;-144.99;93.49;52529.63;5031173;28;19932;-73
2023/03/09 06:48:37;;;;;;;;;;;;;;;-144.99;94.46;52558.16;5029175;28;19952;-72
2023/03/09 06:51:03;;;;;;;;;;;;;;;-144.99;94.79;52552.03;5027641;28;20002;-72
2023/03/09 06:53:30;;;;;;;;;;;;;;;-144.99;94.66;52503.13;5025858;28;20464;-72
2023/03/09 06:55:59;;;;;;;;;;;;;;;-144.99;94.06;52541.84;5023202;28;19979;-72
2023/03/09 06:58:25;;;;;;;;;;;;;;;-144.99;93.99;52566.31;5027687;28;20067;-72
2023/03/09 07:00:52;;;;;;;;;;;;;;;-144.99;94.46;52509.25;5030531;28;19937;-73
2023/03/09 07:03:20;;;;;;;;;;;;;;;-144.99;94.51;52533.69;5027627;28;20005;-72
2023/03/09 07:05:46;;;;;;;;;;;;;;;-144.99;94.73;52525.56;5028506;28;19964;-72
2023/03/09 07:08:13;;;;;;;;;;;;;;;-144.99;94.66;52562.25;5027723;28;20195;-73
2023/03/09 07:10:39;;;;;;;;;;;;;;;-144.99;94.57;52558.16;5024954;28;20255;-73
2023/03/09 07:13:06;;;;;;;;;;;;;;;-144.99;94.45;52566.31;5023516;28;19941;-73
2023/03/09 07:15:32;;;;;;;;;;;;;;;-144.99;93.95;52521.47;5028685;28;19925;-73
2023/03/09 07:17:59;;;;;;;;;;;;;;;-144.99;93.71;52517.41;5030936;28;19924;-74
2023/03/09 07:20:27;;;;;;;;;;;;;;;-144.99;93.64;52488.84;5036385;28;19999;-71
2023/03/09 07:22:54;;;;;;;;;;;;;;;-144.99;93.33;52513.31;5029547;28;20303;-72
2023/03/09 07:25:20;;;;;;;;;;;;;;;-144.99;92.95;52497.00;5031052;28;19925;-73
2023/03/09 07:27:48;;;;;;;;;;;;;;;-144.99;92.27;52521.47;5031252;28;19983;-73
2023/03/09 07:30:15;;;;;;;;;;;;;;;-144.99;92.19;52523.50;5035589;28;19929;-73
2023/03/09 07:32:41;;;;;;;;;;;;;;;-144.99;92.10;52505.16;5031347;28;19945;-74
2023/03/09 07:35:08;;;;;;;;;;;;;;;-144.99;91.68;52492.94;5027031;28;20343;-74
2023/03/09 07:37:36;;;;;;;;;;;;;;;-144.99;91.82;52550.00;5028834;28;19940;-74
2023/03/09 07:40:03;;;;;;;;;;;;;;;-144.99;91.05;52529.63;5031864;28;19925;-72
2023/03/09 07:42:30;;;;;;;;;;;;;;;-144.99;91.08;52513.31;5030618;28;20028;-74
2023/03/09 07:44:57;;;;;;;;;;;;;;;-144.99;90.28;52537.78;5034238;28;19948;-74
2023/03/09 07:47:23;;;;;;;;;;;;;;;-144.99;89.98;52486.81;5032839;28;20377;-74
2023/03/09 07:49:50;;;;;;;;;;;;;;;-144.99;88.34;52562.25;5031404;28;20369;-75
2023/03/09 07:52:16;;;;;;;;;;;;;;;-144.99;87.91;52529.63;5023109;28;20052;-73
2023/03/09 07:54:44;;;;;;;;;;;;;;;-144.99;87.51;52517.41;5029430;28;20342;-73
2023/03/09 07:57:11;;;;;;;;;;;;;;;-144.99;86.69;52517.41;5028518;28;19925;-74
2023/03/09 07:59:38;;;;;;;;;;;;;;;-144.99;86.21;52509.25;5032242;28;19928;-75
2023/03/09 08:02:06;;;;;;;;;;;;;;;-144.99;85.52;52480.72;5028997;28;19943;-74
2023/03/09 08:04:33;;;;;;;;;;;;;;;-144.99;86.71;52545.94;5030071;28;19932;-74
2023/03/09 08:07:00;;;;;;;;;;;;;;;-144.99;86.08;52509.25;5032866;28;20400;-73
2023/03/09 08:09:27;;;;;;;;;;;;;;;-144.99;85.10;52497.00;5033397;28;19932;-73
2023/03/09 08:11:55;;;;;;;;;;;;;;;-144.99;84.33;52513.31;5039378;28;20143;-74
2023/03/09 08:14:21;;;;;;;;;;;;;;;-144.99;83.89;52505.16;5031839;28;20272;-73
2023/03/09 08:16:48;;;;;;;;;;;;;;;-144.99;83.73;52452.16;5036358;28;20003;-74
2023/03/09 08:19:20;;;;;;;;;;;;;;;-144.99;83.42;52531.66;5026222;28;19929;-74
2023/03/09 08:21:46;;;;;;;;;;;;;;;-144.99;83.24;52458.28;5022964;28;19929;-73
2023/03/09 08:24:13;;;;;;;;;;;;;;;-144.99;82.62;52484.78;5024443;28;19987;-74
2023/03/09 08:26:39;;;;;;;;;;;;;;;-144.99;82.48;52497.00;5022407;28;19925;-74
2023/03/09 08:29:07;;;;;;;;;;;;;;;-144.99;82.34;52525.56;5028208;28;19933;-75
2023/03/09 08:31:34;;;;;;;;;;;;;;;-144.99;82.24;52476.63;5030770;28;20294;-72
2023/03/09 08:34:01;;;;;;;;;;;;;;;-144.99;81.95;52456.25;5025634;28;19929;-72
2023/03/09 08:36:27;;;;;;;;;;;;;;;-144.99;81.40;52480.72;5022258;28;19976;-72
2023/03/09 08:38:54;;;;;;;;;;;;;;;-144.99;80.15;52505.16;5028839;28;19925;-71
2023/03/09 08:41:21;;;;;;;;;;;;;;;-144.99;79.59;52492.94;5030909;28;19952;-73
2023/03/09 08:43:47;;;;;;;;;;;;;;;-144.99;79.50;52448.09;5029060;28;19929;-73
2023/03/09 08:46:15;;;;;;;;;;;;;;;-144.99;78.82;52482.75;5030447;28;19932;-73
2023/03/09 08:48:42;;;;;;;;;;;;;;;-144.99;77.79;52507.19;5030183;28;19937;-73
2023/03/09 08:51:10;;;;;;;;;;;;;;;-144.99;76.83;52456.25;5026891;28;19925;-73
2023/03/09 08:53:37;;;;;;;;;;;;;;;-144.99;76.09;52444.03;5028736;28;19972;-74
2023/03/09 08:56:04;;;;;;;;;;;;;;;-144.99;75.10;52484.78;5029363;28;19925;-74
2023/03/09 08:58:30;;;;;;;;;;;;;;;-144.99;74.31;52425.66;5029687;28;19956;-74
2023/03/09 09:00:57;;;;;;;;;;;;;;;-144.99;74.18;52431.78;5030642;28;19925;-76
2023/03/09 09:03:25;;;;;;;;;;;;;;;-144.99;73.71;52478.66;5023030;28;19930;-77
2023/03/09 09:05:52;;;;;;;;;;;;;;;-144.99;73.05;52444.03;5030574;28;19995;-74
2023/03/09 09:08:19;;;;;;;;;;;;;;;-144.99;72.93;52448.09;5029639;28;19972;-75
2023/03/09 09:10:45;;;;;;;;;;;;;;;-144.99;72.51;52429.75;5032051;28;19931;-74
2023/03/09 09:13:12;;;;;;;;;;;;;;;-144.99;72.35;52450.13;5028294;28;19976;-74
2023/03/09 09:15:41;;;;;;;;;;;;;;;-144.99;71.90;52448.09;5026229;28;19975;-74
2023/03/09 09:18:08;;;;;;;;;;;;;;;-144.99;71.58;52433.81;5019672;28;20016;-75
2023/03/09 09:20:36;;;;;;;;;;;;;;;-144.99;71.49;52454.22;5029376;28;19925;-75
2023/03/09 09:23:03;;;;;;;;;;;;;;;-144.99;70.80;52417.53;5027901;28;19932;-76
2023/03/09 09:25:29;;;;;;;;;;;;;;;-144.99;71.20;52452.16;5031629;28;19971;-75
2023/03/09 09:27:56;;;;;;;;;;;;;;;-144.99;70.88;52452.16;5032671;28;19925;-74
2023/03/09 09:30:23;;;;;;;;;;;;;;;-144.99;70.78;52468.47;5023134;28;20354;-75
2023/03/09 09:32:50;;;;;;;;;;;;;;;-144.99;70.78;52403.25;5030075;28;19932;-76
2023/03/09 09:35:16;;;;;;;;;;;;;;;-144.99;70.37;52423.63;5025990;28;20007;-75
2023/03/09 09:37:44;;;;;;;;;;;;;;;-144.99;69.75;52452.16;5031841;28;19983;-76
2023/03/09 09:40:12;;;;;;;;;;;;;;;-144.99;69.63;52419.56;5024974;28;20252;-76
2023/03/09 09:42:40;;;;;;;;;;;;;;;-144.99;69.34;52444.03;5029126;28;19971;-75
2023/03/09 09:45:16;;;;;;;;;;;;;;;-144.99;69.09;52415.47;5037521;28;20297;-75
2023/03/09 09:47:42;;;;;;;;;;;;;;;-144.99;70.00;52407.31;5026119;28;20416;-75
2023/03/09 09:50:12;;;;;;;;;;;;;;;-144.99;69.20;52423.63;5029728;28;20515;-75
2023/03/09 09:52:47;;;;;;;;;;;;;;;-144.99;69.31;52431.78;5031631;28;20283;-75
2023/03/09 09:55:19;;;;;;;;;;;;;;;-144.99;69.34;52378.78;5025817;28;20018;-75
2023/03/09 09:57:46;;;;;;;;;;;;;;;-144.99;69.30;52423.63;5026290;28;19937;-75
2023/03/09 10:00:15;;;;;;;;;;;;;;;-144.99;69.61;52431.78;5031893;28;20349;-77
2023/03/09 10:02:47;;;;;;;;;;;;;;;-144.99;68.76;52395.09;5027303;28;20035;-77
2023/03/09 10:05:17;;;;;;;;;;;;;;;-144.99;67.93;52386.94;5028487;28;20306;-77
2023/03/09 10:07:43;;;;;;;;;;;;;;;-144.99;67.59;52391.03;5019689;28;19928;-76
2023/03/09 10:10:17;;;;;;;;;;;;;;;-144.99;67.04;52366.56;5027317;28;19933;-77
2023/03/09 10:12:44;;;;;;;;;;;;;;;-144.99;66.27;52372.69;5029218;28;19929;-76
2023/03/09 10:15:13;;;;;;;;;;;;;;;-144.99;66.29;52411.41;5030075;28;19929;-77
2023/03/09 10:17:42;;;;;;;;;;;;;;;-144.99;67.02;52393.06;5031271;28;19937;-77
2023/03/09 10:20:14;;;;;;;;;;;;;;;-144.99;66.09;52403.25;5022837;28;19932;-78
2023/03/09 10:22:42;;;;;;;;;;;;;;;-144.99;66.64;52395.09;5024671;28;20696;-78
2023/03/09 10:25:11;;;;;;;;;;;;;;;-144.99;66.86;52374.72;5033496;28;19929;-78
2023/03/09 10:27:42;;;;;;;;;;;;;;;-144.99;66.23;52395.09;5025237;28;20440;-76
2023/03/09 10:30:16;;;;;;;;;;;;;;;-144.99;66.05;52397.13;5028066;28;20302;-76
2023/03/09 10:32:46;;;;;;;;;;;;;;;-144.99;65.77;52358.41;5031695;28;19947;-76
2023/03/09 10:35:20;;;;;;;;;;;;;;;-144.99;65.39;52342.09;5028946;28;19925;-77
2023/03/09 10:37:48;;;;;;;;;;;;;;;-144.99;65.00;52338.03;5029087;28;19990;-76
2023/03/09 10:40:18;;;;;;;;;;;;;;;-144.99;64.25;52301.34;5029370;28;19925;-77
2023/03/09 10:42:46;;;;;;;;;;;;;;;-144.99;63.37;52289.13;5016646;28;20847;-76
2023/03/09 10:45:20;;;;;;;;;;;;;;;-144.99;62.30;52299.31;5026738;28;19990;-77
2023/03/09 10:47:56;;;;;;;;;;;;;;;-144.99;61.74;52244.28;5024889;28;20352;-77
2023/03/09 10:50:24;;;;;;;;;;;;;;;-144.99;61.10;52244.28;5024364;28;19930;-77
2023/03/09 10:52:51;;;;;;;;;;;;;;;-144.99;60.19;52191.28;5024319;28;19930;-77
2023/03/09 10:55:36;;;;;;;;;;;;;;;-144.99;59.88;52230.00;5031483;28;19929;-76
2023/03/09 10:58:13;;;;;;;;;;;;;;;-144.99;59.70;52329.88;5025778;28;19925;-77
2023/03/09 11:00:49;;;;;;;;;;;;;;;-144.99;61.40;52386.94;5031800;28;20374;-78
2023/03/09 11:03:20;;;;;;;;;;;;;;;-144.99;63.35;52431.78;5030990;28;19925;-78
2023/03/09 11:05:46;;;;;;;;;;;;;;;-144.99;64.26;52272.81;5024831;28;19937;-78
2023/03/09 11:08:22;;;;;;;;;;;;;;;-144.99;63.56;52297.25;5028701;28;19933;-77
2023/03/09 11:11:00;;;;;;;;;;;;;;;-144.99;62.44;52252.44;5024839;28;19947;-77
2023/03/09 11:13:28;;;;;;;;;;;;;;;-144.99;62.06;52380.84;5027033;28;19987;-78
2023/03/09 11:16:06;;;;;;;;;;;;;;;-144.99;62.81;52384.91;5024821;28;19979;-78
2023/03/09 11:18:32;;;;;;;;;;;;;;;-144.99;63.82;52415.47;5029697;28;19980;-80
2023/03/09 11:20:59;;;;;;;;;;;;;;;-144.99;65.09;52468.47;5032464;28;19925;-78
2023/03/09 11:23:28;;;;;;;;;;;;;;;-144.99;65.92;52421.59;5030753;28;19929;-80
2023/03/09 11:26:09;;;;;;;;;;;;;;;-144.99;65.26;52344.16;5026614;28;20397;-79
2023/03/09 11:28:42;;;;;;;;;;;;;;;-144.99;64.67;52338.03;5029247;28;19940;-79
2023/03/09 11:31:12;;;;;;;;;;;;;;;-144.99;63.44;52307.47;5031396;28;19929;-78
2023/03/09 11:33:39;;;;;;;;;;;;;;;-144.99;61.88;52350.25;5030209;28;19940;-79
2023/03/09 11:36:07;;;;;;;;;;;;;;;-144.99;62.16;52342.09;5029119;28;19936;-79
2023/03/09 11:38:33;;;;;;;;;;;;;;;-144.99;61.94;52336.00;5024625;28;19925;-80
2023/03/09 11:41:08;;;;;;;;;;;;;;;-144.99;62.19;52439.94;5030157;28;19933;-79
2023/03/09 11:43:37;;;;;;;;;;;;;;;-144.99;62.93;52370.63;5033465;28;20981;-79
2023/03/09 11:46:07;;;;;;;;;;;;;;;-144.99;63.60;52464.41;5026191;28;20410;-80
2023/03/09 11:48:36;;;;;;;;;;;;;;;-144.99;64.36;52439.94;5032246;28;20314;-80
2023/03/09 11:51:06;;;;;;;;;;;;;;;-144.99;64.94;52437.91;5036833;28;19953;-81
2023/03/09 11:53:35;;;;;;;;;;;;;;;-144.99;66.06;52468.47;5028391;28;20394;-79
2023/03/09 11:56:11;;;;;;;;;;;;;;;-144.99;66.55;52448.09;5023134;28;19993;-79
2023/03/09 11:58:40;;;;;;;;;;;;;;;-144.99;67.34;52464.41;5030611;28;19925;-78
2023/03/09 12:01:13;;;;;;;;;;;;;;;-144.99;67.53;52501.09;5032192;28;19947;-78
2023/03/09 12:03:43;;;;;;;;;;;;;;;-144.99;67.64;52494.97;5039930;28;20183;-78
2023/03/09 12:06:18;;;;;;;;;;;;;;;-144.99;67.35;52505.16;5039751;28;20420;-79
2023/03/09 12:08:47;;;;;;;;;;;;;;;-144.99;67.30;52517.41;5041198;28;19929;-78
2023/03/09 12:11:15;;;;;;;;;;;;;;;-144.99;67.05;52486.81;5047773;28;19932;-78
2023/03/09 12:13:49;;;;;;;;;;;;;;;-144.99;66.53;52501.09;5046736;28;20378;-78
2023/03/09 12:16:19;;;;;;;;;;;;;;;-144.99;68.72;52476.63;5047578;28;19972;-79
2023/03/09 12:18:54;;;;;;;;;;;;;;;-144.99;67.21;52480.72;5048058;28;19931;-79
2023/03/09 12:21:28;;;;;;;;;;;;;;;-144.99;67.38;52460.31;5052924;28;20024;-79
2023/03/09 12:23:54;;;;;;;;;;;;;;;-144.99;67.62;52460.31;5039645;28;19930;-78
2023/03/09 12:26:23;;;;;;;;;;;;;;;-144.99;67.20;52468.47;5044211;28;19929;-79
2023/03/09 12:28:58;;;;;;;;;;;;;;;-144.99;67.57;52492.94;5042516;28;20307;-78
2023/03/09 12:31:30;;;;;;;;;;;;;;;-144.99;68.48;52545.94;5040538;28;19929;-80